createdAt,value
2017-05-16T00:00:08.567Z,19.70
2017-05-16T00:02:37.598Z,19.70
2017-05-16T00:05:05.877Z,19.70
2017-05-16T00:07:34.481Z,19.70
2017-05-16T00:10:02.966Z,19.70
2017-05-16T00:12:31.257Z,19.70
2017-05-16T00:14:59.778Z,19.70
2017-05-16T00:17:28.066Z,19.70
2017-05-16T00:19:56.354Z,19.70
2017-05-16T00:22:24.953Z,19.70
2017-05-16T00:24:53.263Z,19.70
2017-05-16T00:27:21.549Z,19.70
2017-05-16T00:29:50.192Z,19.70
2017-05-16T00:32:18.463Z,19.70
2017-05-16T00:34:46.743Z,19.70
2017-05-16T00:37:15.419Z,19.70
2017-05-16T00:39:43.720Z,19.70
2017-05-16T00:42:12.055Z,19.70
2017-05-16T00:44:40.556Z,19.70
2017-05-16T00:47:08.840Z,19.70
2017-05-16T00:49:37.147Z,19.70
2017-05-16T00:52:05.704Z,19.70
2017-05-16T00:54:33.985Z,19.70
2017-05-16T00:57:02.464Z,19.70
2017-05-16T00:59:31.139Z,19.70
2017-05-16T01:01:59.414Z,19.70
2017-05-16T01:04:27.905Z,19.70
2017-05-16T01:06:56.432Z,19.70
2017-05-16T01:09:24.715Z,19.70
2017-05-16T01:11:52.990Z,19.70
2017-05-16T01:14:21.604Z,19.70
2017-05-16T01:16:49.895Z,19.60
2017-05-16T01:19:18.190Z,19.60
2017-05-16T01:21:46.852Z,19.60
2017-05-16T01:24:15.144Z,19.70
2017-05-16T01:26:43.420Z,19.60
2017-05-16T01:29:12.078Z,19.70
2017-05-16T01:31:40.572Z,19.70
2017-05-16T01:34:08.870Z,19.60
2017-05-16T01:36:37.520Z,19.70
2017-05-16T01:39:05.887Z,19.60
2017-05-16T01:41:34.306Z,19.60
2017-05-16T01:44:02.985Z,19.60
2017-05-16T01:46:31.268Z,19.60
2017-05-16T01:48:59.730Z,19.60
2017-05-16T01:51:28.272Z,19.60
2017-05-16T01:53:56.573Z,19.60
2017-05-16T01:56:24.856Z,19.60
2017-05-16T01:58:53.455Z,19.60
2017-05-16T02:01:21.744Z,19.60
2017-05-16T02:03:50.225Z,19.60
2017-05-16T02:06:18.894Z,19.60
2017-05-16T02:08:47.189Z,19.60
2017-05-16T02:11:21.788Z,19.60
2017-05-16T02:13:50.088Z,19.60
2017-05-16T02:16:18.382Z,19.60
2017-05-16T02:18:47.031Z,19.60
2017-05-16T02:21:15.307Z,19.60
2017-05-16T02:23:43.668Z,19.60
2017-05-16T02:26:12.265Z,19.60
2017-05-16T02:28:40.748Z,19.60
2017-05-16T02:31:09.049Z,19.60
2017-05-16T02:33:37.705Z,19.60
2017-05-16T02:36:05.988Z,19.60
2017-05-16T02:38:34.331Z,19.60
2017-05-16T02:41:04.292Z,19.60
2017-05-16T02:43:32.584Z,19.60
2017-05-16T02:46:00.940Z,19.60
2017-05-16T02:48:29.467Z,19.60
2017-05-16T02:50:57.742Z,19.60
2017-05-16T02:53:26.034Z,19.60
2017-05-16T02:55:54.652Z,19.60
2017-05-16T02:58:23.135Z,19.60
2017-05-16T03:00:52.315Z,19.60
2017-05-16T03:03:20.908Z,19.60
2017-05-16T03:05:49.395Z,19.60
2017-05-16T03:08:17.889Z,19.60
2017-05-16T03:10:46.504Z,19.50
2017-05-16T03:13:15.656Z,19.50
2017-05-16T03:15:44.137Z,19.60
2017-05-16T03:18:12.822Z,19.60
2017-05-16T03:20:41.301Z,19.50
2017-05-16T03:23:09.605Z,19.50
2017-05-16T03:25:38.259Z,19.50
2017-05-16T03:28:06.540Z,19.50
2017-05-16T03:30:35.020Z,19.50
2017-05-16T03:33:03.709Z,19.50
2017-05-16T03:35:32.002Z,19.50
2017-05-16T03:38:00.510Z,19.50
2017-05-16T03:40:29.148Z,19.50
2017-05-16T03:42:57.445Z,19.50
2017-05-16T03:45:25.728Z,19.50
2017-05-16T03:47:54.239Z,19.50
2017-05-16T03:50:22.523Z,19.50
2017-05-16T03:52:50.942Z,19.50
2017-05-16T03:55:19.473Z,19.50
2017-05-16T03:57:47.912Z,19.50
2017-05-16T04:00:16.193Z,19.50
2017-05-16T04:02:44.800Z,19.50
2017-05-16T04:05:13.835Z,19.50
2017-05-16T04:07:42.126Z,19.50
2017-05-16T04:10:10.707Z,19.50
2017-05-16T04:12:38.997Z,19.50
2017-05-16T04:15:07.286Z,19.50
2017-05-16T04:17:35.953Z,19.50
2017-05-16T04:20:04.444Z,19.50
2017-05-16T04:22:32.733Z,19.50
2017-05-16T04:25:01.404Z,19.50
2017-05-16T04:27:29.701Z,19.50
2017-05-16T04:29:58.156Z,19.50
2017-05-16T04:32:26.844Z,19.50
2017-05-16T04:34:55.132Z,19.50
2017-05-16T04:37:23.462Z,19.50
2017-05-16T04:39:52.280Z,19.50
2017-05-16T04:42:20.572Z,19.50
2017-05-16T04:44:49.053Z,19.50
2017-05-16T04:47:17.723Z,19.50
2017-05-16T04:49:46.028Z,19.50
2017-05-16T04:52:14.310Z,19.50
2017-05-16T04:54:42.955Z,19.50
2017-05-16T04:57:11.238Z,19.50
2017-05-16T04:59:39.540Z,19.50
2017-05-16T05:02:08.208Z,19.50
2017-05-16T05:04:36.509Z,19.50
2017-05-16T05:07:04.803Z,19.50
2017-05-16T05:09:33.434Z,19.50
2017-05-16T05:12:01.717Z,19.50
2017-05-16T05:14:30.217Z,19.50
2017-05-16T05:17:00.126Z,19.50
2017-05-16T05:19:28.473Z,19.50
2017-05-16T05:21:56.868Z,19.50
2017-05-16T05:24:25.541Z,19.50
2017-05-16T05:26:53.831Z,19.50
2017-05-16T05:29:22.128Z,19.50
2017-05-16T05:31:50.788Z,19.50
2017-05-16T05:34:19.073Z,19.50
2017-05-16T05:36:47.362Z,19.50
2017-05-16T05:39:16.026Z,19.50
2017-05-16T05:41:44.313Z,19.50
2017-05-16T05:44:12.591Z,19.50
2017-05-16T05:46:41.270Z,19.50
2017-05-16T05:49:09.567Z,19.50
2017-05-16T05:51:37.861Z,19.50
2017-05-16T05:54:06.497Z,19.50
2017-05-16T05:56:34.973Z,19.50
2017-05-16T05:59:03.473Z,19.50
2017-05-16T06:01:32.145Z,19.50
2017-05-16T06:04:00.462Z,19.50
2017-05-16T06:06:29.155Z,19.50
2017-05-16T06:08:57.808Z,19.50
2017-05-16T06:11:26.090Z,19.50
2017-05-16T06:13:54.374Z,19.50
2017-05-16T06:16:22.971Z,19.50
2017-05-16T06:18:52.005Z,19.50
2017-05-16T06:21:20.284Z,19.50
2017-05-16T06:23:48.857Z,19.50
2017-05-16T06:26:17.135Z,19.50
2017-05-16T06:28:45.407Z,19.50
2017-05-16T06:31:14.131Z,19.50
2017-05-16T06:33:42.600Z,19.60
2017-05-16T06:36:10.894Z,19.60
2017-05-16T06:38:39.570Z,19.50
2017-05-16T06:41:07.926Z,19.50
2017-05-16T06:43:36.219Z,19.60
2017-05-16T06:46:05.009Z,19.50
2017-05-16T06:48:33.306Z,19.60
2017-05-16T06:51:01.617Z,19.60
2017-05-16T06:53:30.251Z,19.60
2017-05-16T06:55:58.539Z,19.60
2017-05-16T06:58:27.026Z,19.60
2017-05-16T07:00:55.699Z,19.60
2017-05-16T07:03:23.992Z,19.60
2017-05-16T07:05:52.294Z,19.60
2017-05-16T07:08:20.925Z,19.60
2017-05-16T07:10:49.219Z,19.60
2017-05-16T07:13:17.896Z,19.60
2017-05-16T07:15:46.386Z,19.60
2017-05-16T07:18:14.673Z,19.60
2017-05-16T07:20:43.271Z,19.60
2017-05-16T07:23:12.298Z,19.60
2017-05-16T07:25:40.712Z,19.60
2017-05-16T07:28:09.386Z,19.60
2017-05-16T07:30:37.823Z,19.60
2017-05-16T07:33:06.349Z,19.60
2017-05-16T07:35:35.046Z,19.60
2017-05-16T07:38:03.344Z,19.60
2017-05-16T07:40:31.638Z,19.60
2017-05-16T07:43:00.273Z,19.60
2017-05-16T07:45:28.575Z,19.60
2017-05-16T07:47:56.868Z,19.60
2017-05-16T07:50:25.434Z,19.60
2017-05-16T07:52:53.732Z,19.60
2017-05-16T07:55:22.765Z,19.60
2017-05-16T07:57:51.267Z,19.60
2017-05-16T08:00:19.657Z,19.60
2017-05-16T08:02:47.953Z,19.60
2017-05-16T08:05:16.595Z,19.60
2017-05-16T08:07:44.885Z,19.60
2017-05-16T08:10:13.175Z,19.60
2017-05-16T08:12:41.770Z,19.60
2017-05-16T08:15:10.805Z,19.60
2017-05-16T08:17:39.091Z,19.60
2017-05-16T08:20:07.679Z,19.60
2017-05-16T08:22:35.991Z,19.60
2017-05-16T08:25:04.291Z,19.60
2017-05-16T08:27:32.920Z,19.60
2017-05-16T08:30:01.220Z,19.60
2017-05-16T08:32:29.676Z,19.60
2017-05-16T08:34:58.384Z,19.60
2017-05-16T08:37:26.673Z,19.60
2017-05-16T08:39:55.005Z,19.60
2017-05-16T08:42:23.548Z,19.60
2017-05-16T08:44:52.711Z,19.60
2017-05-16T08:47:21.006Z,19.60
2017-05-16T08:49:49.665Z,19.60
2017-05-16T08:52:17.961Z,19.70
2017-05-16T08:54:46.255Z,19.70
2017-05-16T08:57:16.737Z,19.60
2017-05-16T08:59:45.056Z,19.60
2017-05-16T09:02:13.358Z,19.60
2017-05-16T09:04:41.996Z,19.70
2017-05-16T09:07:10.284Z,19.70
2017-05-16T09:09:38.588Z,19.70
2017-05-16T09:12:07.197Z,19.70
2017-05-16T09:14:35.700Z,19.70
2017-05-16T09:17:03.986Z,19.70
2017-05-16T09:19:32.677Z,19.70
2017-05-16T09:22:00.968Z,19.70
2017-05-16T09:24:29.252Z,19.70
2017-05-16T09:26:57.849Z,19.70
2017-05-16T09:29:26.187Z,19.70
2017-05-16T09:34:29.486Z,19.70
2017-05-16T09:36:57.786Z,19.70
2017-05-16T09:39:26.086Z,19.70
2017-05-16T09:41:54.725Z,19.70
2017-05-16T09:44:23.018Z,19.70
2017-05-16T09:46:51.318Z,19.70
2017-05-16T09:49:19.921Z,19.70
2017-05-16T09:51:48.250Z,19.70
2017-05-16T09:54:16.540Z,19.70
2017-05-16T09:56:45.214Z,19.70
2017-05-16T09:59:13.520Z,19.70
2017-05-16T10:01:41.948Z,19.70
2017-05-16T10:04:10.641Z,19.70
2017-05-16T10:06:38.928Z,19.70
2017-05-16T10:09:07.205Z,19.70
2017-05-16T10:11:35.772Z,19.70
2017-05-16T10:14:04.090Z,19.70
2017-05-16T10:16:33.141Z,19.70
2017-05-16T10:19:01.729Z,19.70
2017-05-16T10:21:30.105Z,19.70
2017-05-16T10:23:58.406Z,19.70
2017-05-16T10:26:26.963Z,19.70
2017-05-16T10:28:55.334Z,19.70
2017-05-16T10:31:23.728Z,19.70
2017-05-16T10:33:52.417Z,19.70
2017-05-16T10:36:20.910Z,19.70
2017-05-16T10:38:49.199Z,19.70
2017-05-16T10:41:17.864Z,19.70
2017-05-16T10:43:46.152Z,19.70
2017-05-16T10:46:14.439Z,19.70
2017-05-16T10:48:43.028Z,19.70
2017-05-16T10:51:12.075Z,19.70
2017-05-16T10:53:40.462Z,19.70
2017-05-16T10:56:09.889Z,19.70
2017-05-16T10:58:38.179Z,19.70
2017-05-16T11:01:07.212Z,19.70
2017-05-16T11:03:35.821Z,19.70
2017-05-16T11:06:04.727Z,19.70
2017-05-16T11:08:33.019Z,19.70
2017-05-16T11:11:01.683Z,19.70
2017-05-16T11:13:29.979Z,19.70
2017-05-16T11:15:58.423Z,19.70
2017-05-16T11:18:27.122Z,19.70
2017-05-16T11:20:55.408Z,19.70
2017-05-16T11:23:23.866Z,19.70
2017-05-16T11:25:52.430Z,19.80
2017-05-16T11:28:20.705Z,19.70
2017-05-16T11:30:48.988Z,19.80
2017-05-16T11:33:17.584Z,19.70
2017-05-16T11:35:45.883Z,19.80
2017-05-16T11:38:14.168Z,19.80
2017-05-16T11:40:42.674Z,19.70
2017-05-16T11:43:11.103Z,19.80
2017-05-16T11:45:39.461Z,19.80
2017-05-16T11:48:08.074Z,19.70
2017-05-16T11:50:36.364Z,19.70
2017-05-16T11:53:04.647Z,19.70
2017-05-16T11:55:33.299Z,19.70
2017-05-16T11:58:01.576Z,19.80
2017-05-16T12:00:29.888Z,19.70
2017-05-16T12:02:58.549Z,19.80
2017-05-16T12:05:26.858Z,19.80
2017-05-16T12:07:55.150Z,19.80
2017-05-16T12:10:23.794Z,19.80
2017-05-16T12:12:52.082Z,19.70
2017-05-16T12:15:20.375Z,19.80
2017-05-16T12:17:48.948Z,19.80
2017-05-16T12:20:17.986Z,19.80
2017-05-16T12:22:46.274Z,19.80
2017-05-16T12:25:14.827Z,19.80
2017-05-16T12:27:43.107Z,19.80
2017-05-16T12:30:11.393Z,19.80
2017-05-16T12:32:39.905Z,19.80
2017-05-16T12:35:08.186Z,19.80
2017-05-16T12:37:36.469Z,19.80
2017-05-16T12:40:05.156Z,19.80
2017-05-16T12:42:33.426Z,19.80
2017-05-16T12:45:01.713Z,19.80
2017-05-16T12:47:30.232Z,19.80
2017-05-16T12:49:58.645Z,19.80
2017-05-16T12:52:26.938Z,19.80
2017-05-16T12:54:55.532Z,19.80
2017-05-16T12:57:23.893Z,19.80
2017-05-16T12:59:52.564Z,19.80
2017-05-16T13:02:21.273Z,19.80
2017-05-16T13:04:49.543Z,19.80
2017-05-16T13:07:17.840Z,19.80
2017-05-16T13:09:46.484Z,19.80
2017-05-16T13:12:14.788Z,19.80
2017-05-16T13:14:43.083Z,19.80
2017-05-16T13:17:11.733Z,19.80
2017-05-16T13:19:40.021Z,19.80
2017-05-16T13:22:08.476Z,19.80
2017-05-16T13:24:37.198Z,19.80
2017-05-16T13:27:05.484Z,19.80
2017-05-16T13:29:33.771Z,19.90
2017-05-16T13:32:02.297Z,19.80
2017-05-16T13:34:30.593Z,19.80
2017-05-16T13:36:59.164Z,19.80
2017-05-16T13:39:27.861Z,19.80
2017-05-16T13:41:56.152Z,19.80
2017-05-16T13:44:24.450Z,19.90
2017-05-16T13:46:53.756Z,19.80
2017-05-16T13:49:22.405Z,19.90
2017-05-16T13:51:50.692Z,19.90
2017-05-16T13:54:19.352Z,19.90
2017-05-16T13:56:47.641Z,19.90
2017-05-16T13:59:15.930Z,19.90
2017-05-16T14:01:44.592Z,19.90
2017-05-16T14:04:13.070Z,19.90
2017-05-16T14:06:41.359Z,19.90
2017-05-16T14:09:09.877Z,19.90
2017-05-16T14:11:38.181Z,19.90
2017-05-16T14:14:06.565Z,19.90
2017-05-16T14:16:35.270Z,19.90
2017-05-16T14:19:03.569Z,19.90
2017-05-16T14:21:31.897Z,19.90
2017-05-16T14:24:00.510Z,19.90
2017-05-16T14:26:28.806Z,19.90
2017-05-16T14:28:57.101Z,19.90
2017-05-16T14:31:25.748Z,19.90
2017-05-16T14:33:54.043Z,19.90
2017-05-16T14:36:22.330Z,19.90
2017-05-16T14:38:50.987Z,19.90
2017-05-16T14:41:19.276Z,19.90
2017-05-16T14:43:47.569Z,19.90
2017-05-16T14:46:16.249Z,19.90
2017-05-16T14:48:44.548Z,20.00
2017-05-16T14:51:12.839Z,19.90
2017-05-16T14:53:41.350Z,20.00
2017-05-16T14:56:09.630Z,20.00
2017-05-16T14:58:37.930Z,20.00
2017-05-16T15:01:06.498Z,20.00
2017-05-16T15:03:34.782Z,20.00
2017-05-16T15:06:03.081Z,20.00
2017-05-16T15:08:31.721Z,20.00
2017-05-16T15:11:00.011Z,20.00
2017-05-16T15:13:28.318Z,20.00
2017-05-16T15:15:56.970Z,20.00
2017-05-16T15:18:25.445Z,20.00
2017-05-16T15:20:53.938Z,20.00
2017-05-16T15:23:22.617Z,20.00
2017-05-16T15:25:50.914Z,20.00
2017-05-16T15:28:19.205Z,20.00
2017-05-16T15:30:47.863Z,20.00
2017-05-16T15:33:16.170Z,20.00
2017-05-16T15:35:44.474Z,20.00
2017-05-16T15:38:13.094Z,20.00
2017-05-16T15:40:41.385Z,20.00
2017-05-16T15:43:09.770Z,20.00
2017-05-16T15:45:38.339Z,20.00
2017-05-16T15:48:06.646Z,20.00
2017-05-16T15:50:34.942Z,20.00
2017-05-16T15:53:03.536Z,20.00
2017-05-16T15:55:31.855Z,20.00
2017-05-16T15:58:00.607Z,20.00
2017-05-16T16:00:29.221Z,20.10
2017-05-16T16:02:57.578Z,20.10
2017-05-16T16:05:26.074Z,20.10
2017-05-16T16:07:54.673Z,20.10
2017-05-16T16:10:22.968Z,20.10
2017-05-16T16:12:51.408Z,20.10
2017-05-16T16:15:19.932Z,20.10
2017-05-16T16:20:24.021Z,20.10
2017-05-16T16:22:52.307Z,20.10
2017-05-16T16:25:20.589Z,20.10
2017-05-16T16:27:49.111Z,20.10
2017-05-16T16:30:17.538Z,20.10
2017-05-16T16:32:45.823Z,20.10
2017-05-16T16:35:14.499Z,20.10
2017-05-16T16:37:42.978Z,20.20
2017-05-16T16:40:11.282Z,20.20
2017-05-16T16:42:39.943Z,20.20
2017-05-16T16:45:08.431Z,20.20
2017-05-16T16:47:36.722Z,20.20
2017-05-16T16:50:05.388Z,20.20
2017-05-16T16:52:33.681Z,20.20
2017-05-16T16:55:02.026Z,20.20
2017-05-16T16:57:30.551Z,20.20
2017-05-16T16:59:58.847Z,20.30
2017-05-16T17:02:27.885Z,20.20
2017-05-16T17:04:56.425Z,20.30
2017-05-16T17:07:24.718Z,20.30
2017-05-16T17:09:53.005Z,20.30
2017-05-16T17:12:21.523Z,20.30
2017-05-16T17:14:49.813Z,20.30
2017-05-16T17:17:18.110Z,20.30
2017-05-16T17:19:46.765Z,20.40
2017-05-16T17:22:15.108Z,20.40
2017-05-16T17:24:43.403Z,20.40
2017-05-16T17:27:11.999Z,20.40
2017-05-16T17:29:40.300Z,20.40
2017-05-16T17:32:08.607Z,20.40
2017-05-16T17:34:37.190Z,20.40
2017-05-16T17:37:05.486Z,20.40
2017-05-16T17:39:33.787Z,20.40
2017-05-16T17:42:02.463Z,20.40
2017-05-16T17:44:30.759Z,20.50
2017-05-16T17:46:59.049Z,20.50
2017-05-16T17:49:27.709Z,20.50
2017-05-16T17:51:56.004Z,20.50
2017-05-16T17:54:24.298Z,20.50
2017-05-16T17:56:52.943Z,20.50
2017-05-16T17:59:21.233Z,20.50
2017-05-16T18:01:49.542Z,20.50
2017-05-16T18:04:18.071Z,20.60
2017-05-16T18:06:46.418Z,20.60
2017-05-16T18:09:14.706Z,20.60
2017-05-16T18:11:43.415Z,20.60
2017-05-16T18:14:11.697Z,20.60
2017-05-16T18:16:40.006Z,20.60
2017-05-16T18:19:08.655Z,20.60
2017-05-16T18:21:37.128Z,20.60
2017-05-16T18:24:05.415Z,20.60
2017-05-16T18:26:34.085Z,20.60
2017-05-16T18:29:02.381Z,20.60
2017-05-16T18:31:30.692Z,20.60
2017-05-16T18:33:59.291Z,20.60
2017-05-16T18:36:27.617Z,20.60
2017-05-16T18:38:55.913Z,20.50
2017-05-16T18:41:24.574Z,20.50
2017-05-16T18:43:52.878Z,20.50
2017-05-16T18:46:21.220Z,20.50
2017-05-16T18:48:49.813Z,20.50
2017-05-16T18:51:18.121Z,20.50
2017-05-16T18:53:46.574Z,20.50
2017-05-16T18:56:15.271Z,20.50
2017-05-16T18:58:43.575Z,20.50
2017-05-16T19:01:11.886Z,20.50
2017-05-16T19:03:40.501Z,20.50
2017-05-16T19:06:08.802Z,20.50
2017-05-16T19:08:37.108Z,20.40
2017-05-16T19:11:05.732Z,20.40
2017-05-16T19:13:34.017Z,20.40
2017-05-16T19:16:02.314Z,20.40
2017-05-16T19:18:30.957Z,20.40
2017-05-16T19:20:59.247Z,20.40
2017-05-16T19:23:27.553Z,20.40
2017-05-16T19:25:56.197Z,20.40
2017-05-16T19:28:24.484Z,20.40
2017-05-16T19:30:52.787Z,20.40
2017-05-16T19:33:21.140Z,20.40
2017-05-16T19:35:49.437Z,20.40
2017-05-16T19:38:18.461Z,20.40
2017-05-16T19:40:46.794Z,20.40
2017-05-16T19:43:15.188Z,20.40
2017-05-16T19:45:43.568Z,20.40
2017-05-16T19:48:12.659Z,20.30
2017-05-16T19:50:41.704Z,20.30
2017-05-16T19:53:09.992Z,20.40
2017-05-16T19:55:38.301Z,20.40
2017-05-16T19:58:06.598Z,20.40
2017-05-16T20:00:34.887Z,20.40
2017-05-16T20:03:03.196Z,20.30
2017-05-16T20:05:31.489Z,20.30
2017-05-16T20:07:59.799Z,20.30
2017-05-16T20:10:28.355Z,20.30
2017-05-16T20:12:56.653Z,20.30
2017-05-16T20:15:24.953Z,20.30
2017-05-16T20:17:53.469Z,20.30
2017-05-16T20:20:21.827Z,20.30
2017-05-16T20:22:50.382Z,20.30
2017-05-16T20:25:18.966Z,20.30
2017-05-16T20:27:47.270Z,20.30
2017-05-16T20:30:16.413Z,20.30
2017-05-16T20:32:44.718Z,20.30
2017-05-16T20:35:13.055Z,20.30
2017-05-16T20:37:41.745Z,20.30
2017-05-16T20:40:10.049Z,20.30
2017-05-16T20:42:38.359Z,20.30
2017-05-16T20:45:06.974Z,20.30
2017-05-16T20:47:35.265Z,20.30
2017-05-16T20:50:03.733Z,20.30
2017-05-16T20:52:32.420Z,20.30
2017-05-16T20:55:00.702Z,20.30
2017-05-16T20:57:29.014Z,20.30
2017-05-16T20:59:57.653Z,20.30
2017-05-16T21:02:26.138Z,20.30
2017-05-16T21:04:54.536Z,20.30
2017-05-16T21:07:23.095Z,20.30
2017-05-16T21:09:51.521Z,20.30
2017-05-16T21:12:19.874Z,20.30
2017-05-16T21:14:48.552Z,20.30
2017-05-16T21:17:16.841Z,20.30
2017-05-16T21:19:45.301Z,20.30
2017-05-16T21:22:13.992Z,20.30
2017-05-16T21:24:42.479Z,20.30
2017-05-16T21:27:10.775Z,20.30
2017-05-16T21:29:39.303Z,20.30
2017-05-16T21:32:07.618Z,20.30
2017-05-16T21:34:35.978Z,20.30
2017-05-16T21:37:04.659Z,20.30
2017-05-16T21:39:32.958Z,20.30
2017-05-16T21:42:01.244Z,20.30
2017-05-16T21:44:30.583Z,20.20
2017-05-16T21:46:58.881Z,20.30
2017-05-16T21:49:27.176Z,20.30
2017-05-16T21:51:55.851Z,20.30
2017-05-16T21:54:24.151Z,20.30
2017-05-16T21:56:52.598Z,20.30
2017-05-16T21:59:21.288Z,20.30
2017-05-16T22:01:49.585Z,20.30
2017-05-16T22:04:17.875Z,20.30
2017-05-16T22:06:46.531Z,20.20
2017-05-16T22:09:14.832Z,20.30
2017-05-16T22:11:43.120Z,20.30
2017-05-16T22:14:11.776Z,20.30
2017-05-16T22:16:40.256Z,20.20
2017-05-16T22:19:08.540Z,20.20
2017-05-16T22:21:37.220Z,20.20
2017-05-16T22:24:05.514Z,20.20
2017-05-16T22:26:33.816Z,20.20
2017-05-16T22:29:02.446Z,20.20
2017-05-16T22:31:30.740Z,20.20
2017-05-16T22:33:59.203Z,20.20
2017-05-16T22:36:27.741Z,20.20
2017-05-16T22:38:56.039Z,20.20
2017-05-16T22:41:24.329Z,20.20
2017-05-16T22:43:52.936Z,20.20
2017-05-16T22:46:21.217Z,20.20
2017-05-16T22:48:49.508Z,20.20
2017-05-16T22:51:18.147Z,20.20
2017-05-16T22:53:46.430Z,20.20
2017-05-16T22:56:14.740Z,20.20
2017-05-16T22:58:43.405Z,20.20
2017-05-16T23:01:11.760Z,20.20
2017-05-16T23:03:40.171Z,20.20
2017-05-16T23:06:08.838Z,20.20
2017-05-16T23:08:37.131Z,20.20
2017-05-16T23:11:05.411Z,20.20
2017-05-16T23:13:33.928Z,20.20
2017-05-16T23:16:02.225Z,20.20
2017-05-16T23:18:30.501Z,20.20
2017-05-16T23:20:59.135Z,20.20
2017-05-16T23:23:27.419Z,20.20
2017-05-16T23:25:55.701Z,20.20
2017-05-16T23:28:24.344Z,20.20
2017-05-16T23:30:52.631Z,20.20
2017-05-16T23:33:20.920Z,20.10
2017-05-16T23:35:49.429Z,20.20
2017-05-16T23:38:17.703Z,20.20
2017-05-16T23:40:45.984Z,20.10
2017-05-16T23:43:14.479Z,20.20
2017-05-16T23:45:42.760Z,20.10
2017-05-16T23:48:11.049Z,20.10
2017-05-16T23:50:39.660Z,20.10
2017-05-16T23:53:07.947Z,20.10
2017-05-16T23:55:36.411Z,20.10
2017-05-16T23:58:05.101Z,20.10
